Mansfield, Ohio
Current Conditions -  °F | °C
As of 11:52 AM on Thursday 18 Dec 2014 (Local Time) from KMFD Reporting Station
Overcast Overcast  
Wind Chill: -6°   Ceiling: 1500
Heat Index: -3°   Visibility: 10mi
Dew Point: -6°   Wind: 6mph
Humidity: 78%   Direction: 240°WSW
Pressure: 30.19"   Gusts: NA
Location:  40.76°N, 82.51°W
Report Text: KMFD 181652Z 24005KT 10SM OVC015 M03/M06 A3019 RMK AO2 SLP240 T10281061
Loading
Personal Weather Stations






























Interactive Weather Map New forecast layout! Learn more

10-Day Weather Forecast

Advertisements
Track Severe Weather on mobile